Time;durP1;ratioP1;P1;durP2;ratioP2;P2;SDS_P1;SDS_P2;PMS_P1;PMS_P2;Temp;Humidity;BMP_temperature;BMP_pressure;BME280_temperature;BME280_humidity;BME280_pressure;Samples;Min_cycle;Max_cycle;Signal;HPM_P1;HPM_P2
2023/11/08 00:02:08;;;;;;;6.72;2.72;;;;;;;;;;10252372;28;20035;-60
2023/11/08 00:07:09;;;;;;;5.05;2.08;;;;;;;;;;10252099;28;20035;-60
2023/11/08 00:12:09;;;;;;;2.83;2.35;;;;;;;;;;10251392;28;20110;-60
2023/11/08 00:17:10;;;;;;;3.83;2.33;;;;;;;;;;10251675;28;20070;-60
2023/11/08 00:22:11;;;;;;;2.67;2.03;;;;;;;;;;10251008;28;20039;-60
2023/11/08 00:27:12;;;;;;;12.63;2.55;;;;;;;;;;10250720;28;20607;-60
2023/11/08 00:32:13;;;;;;;4.47;2.25;;;;;;;;;;10251012;28;20039;-60
2023/11/08 00:37:13;;;;;;;4.63;2.15;;;;;;;;;;10250298;28;20067;-60
2023/11/08 00:42:14;;;;;;;3.63;2.20;;;;;;;;;;10250125;28;20038;-60
2023/11/08 00:47:15;;;;;;;4.00;2.38;;;;;;;;;;10249530;28;20039;-60
2023/11/08 00:52:16;;;;;;;5.53;2.28;;;;;;;;;;10250151;28;20024;-59
2023/11/08 00:57:17;;;;;;;4.63;2.28;;;;;;;;;;10249890;28;20060;-59
2023/11/08 01:02:17;;;;;;;3.10;2.08;;;;;;;;;;10249244;28;20028;-61
2023/11/08 01:07:18;;;;;;;2.80;2.60;;;;;;;;;;10249997;28;20031;-61
2023/11/08 01:12:18;;;;;;;4.22;2.65;;;;;;;;;;10249466;28;20391;-61
2023/11/08 01:17:19;;;;;;;3.47;2.38;;;;;;;;;;10248853;28;20471;-61
2023/11/08 01:22:19;;;;;;;4.88;2.10;;;;;;;;;;10249279;28;20081;-61
2023/11/08 01:27:20;;;;;;;4.05;2.25;;;;;;;;;;10247543;28;20522;-60
2023/11/08 01:32:21;;;;;;;3.13;2.00;;;;;;;;;;10248937;28;20422;-60
2023/11/08 01:37:21;;;;;;;4.03;2.28;;;;;;;;;;10247272;28;20027;-60
2023/11/08 01:42:22;;;;;;;3.40;2.13;;;;;;;;;;10247861;28;20028;-60
2023/11/08 01:47:23;;;;;;;3.42;2.33;;;;;;;;;;10247352;28;20035;-60
2023/11/08 01:52:24;;;;;;;3.63;2.05;;;;;;;;;;10246886;28;20179;-60
2023/11/08 01:57:26;;;;;;;7.78;2.20;;;;;;;;;;10247448;28;20043;-60
2023/11/08 02:02:27;;;;;;;3.58;1.90;;;;;;;;;;10242852;28;20119;-61
2023/11/08 02:07:28;;;;;;;3.22;1.90;;;;;;;;;;10248250;28;20035;-60
2023/11/08 02:12:29;;;;;;;5.18;2.22;;;;;;;;;;10247502;28;20039;-60
2023/11/08 02:17:29;;;;;;;4.05;2.30;;;;;;;;;;10245951;28;20039;-60
2023/11/08 02:22:30;;;;;;;2.88;2.30;;;;;;;;;;10246371;28;20031;-61
2023/11/08 02:27:31;;;;;;;3.67;2.40;;;;;;;;;;10246517;28;20451;-61
2023/11/08 02:32:34;;;;;;;3.85;1.83;;;;;;;;;;10246137;28;20042;-60
2023/11/08 02:37:35;;;;;;;2.60;2.13;;;;;;;;;;10246355;28;20035;-60
2023/11/08 02:42:42;;;;;;;2.45;1.98;;;;;;;;;;10246351;28;20502;-60
2023/11/08 02:47:42;;;;;;;2.38;1.80;;;;;;;;;;10245174;28;20078;-60
2023/11/08 02:52:43;;;;;;;1.95;1.77;;;;;;;;;;10245038;28;20035;-60
2023/11/08 02:57:44;;;;;;;2.05;1.90;;;;;;;;;;10245130;28;20098;-60
2023/11/08 03:02:44;;;;;;;2.95;2.10;;;;;;;;;;10244772;28;20039;-59
2023/11/08 03:07:45;;;;;;;4.28;1.90;;;;;;;;;;10245307;28;20375;-59
2023/11/08 03:12:50;;;;;;;2.88;2.10;;;;;;;;;;10245031;28;20407;-59
2023/11/08 03:17:51;;;;;;;3.15;1.70;;;;;;;;;;10244145;28;20035;-60
2023/11/08 03:22:53;;;;;;;3.22;1.70;;;;;;;;;;10244053;28;20027;-60
2023/11/08 03:27:53;;;;;;;3.55;2.10;;;;;;;;;;10244178;28;20035;-59
2023/11/08 03:32:55;;;;;;;2.42;1.90;;;;;;;;;;10244300;28;20035;-59
2023/11/08 03:37:56;;;;;;;2.58;2.00;;;;;;;;;;10244387;28;20059;-59
2023/11/08 03:42:57;;;;;;;3.40;2.13;;;;;;;;;;10244667;28;20023;-60
2023/11/08 03:47:57;;;;;;;2.50;1.83;;;;;;;;;;10244400;28;20050;-59
2023/11/08 03:52:58;;;;;;;4.55;1.90;;;;;;;;;;10244074;28;20483;-60
2023/11/08 03:57:59;;;;;;;2.33;1.60;;;;;;;;;;10244177;28;20051;-60
2023/11/08 04:03:00;;;;;;;2.35;1.67;;;;;;;;;;10243835;28;20554;-59
2023/11/08 04:08:01;;;;;;;2.35;1.77;;;;;;;;;;10244051;28;20039;-60
2023/11/08 04:13:01;;;;;;;2.20;1.98;;;;;;;;;;10243909;28;20431;-60
2023/11/08 04:18:02;;;;;;;1.80;1.70;;;;;;;;;;10243769;28;20379;-60
2023/11/08 04:23:02;;;;;;;1.88;1.73;;;;;;;;;;10243885;28;20391;-60
2023/11/08 04:28:03;;;;;;;2.05;1.92;;;;;;;;;;10247447;28;20402;-61
2023/11/08 04:33:04;;;;;;;2.08;1.63;;;;;;;;;;10250135;28;20479;-61
2023/11/08 04:38:05;;;;;;;1.80;1.70;;;;;;;;;;10251087;28;20061;-61
2023/11/08 04:43:06;;;;;;;2.28;2.00;;;;;;;;;;10250160;28;20031;-61
2023/11/08 04:48:06;;;;;;;2.55;1.73;;;;;;;;;;10249596;28;20387;-61
2023/11/08 04:53:07;;;;;;;1.65;1.55;;;;;;;;;;10250870;28;20391;-61
2023/11/08 04:58:08;;;;;;;2.75;1.80;;;;;;;;;;10250430;28;20059;-61
2023/11/08 05:03:08;;;;;;;1.58;1.48;;;;;;;;;;10249274;28;20483;-61
2023/11/08 05:08:09;;;;;;;1.63;1.52;;;;;;;;;;10250114;28;20039;-61
2023/11/08 05:13:10;;;;;;;2.58;1.63;;;;;;;;;;10248999;28;20039;-61
2023/11/08 05:18:10;;;;;;;1.52;1.42;;;;;;;;;;10249460;28;20035;-60
2023/11/08 05:23:11;;;;;;;4.03;1.85;;;;;;;;;;10248149;28;20047;-60
2023/11/08 05:28:11;;;;;;;1.50;1.40;;;;;;;;;;10248957;28;20390;-60
2023/11/08 05:33:12;;;;;;;2.88;1.73;;;;;;;;;;10248202;28;20038;-61
2023/11/08 05:38:13;;;;;;;2.25;1.77;;;;;;;;;;10247626;28;20078;-59
2023/11/08 05:43:13;;;;;;;2.10;1.90;;;;;;;;;;10247626;28;20039;-59
2023/11/08 05:48:15;;;;;;;1.90;1.60;;;;;;;;;;10247789;28;20043;-59
2023/11/08 05:53:17;;;;;;;2.85;1.90;;;;;;;;;;10247170;28;20071;-60
2023/11/08 05:58:17;;;;;;;1.55;1.45;;;;;;;;;;10235453;28;20047;-59
2023/11/08 06:03:18;;;;;;;2.33;1.70;;;;;;;;;;10247452;28;20483;-59
2023/11/08 06:08:19;;;;;;;2.67;2.10;;;;;;;;;;10247267;28;20086;-59
2023/11/08 06:13:19;;;;;;;3.47;1.80;;;;;;;;;;10246374;28;20050;-59
2023/11/08 06:18:24;;;;;;;3.67;1.77;;;;;;;;;;10245839;28;20039;-59
2023/11/08 06:23:25;;;;;;;2.08;1.60;;;;;;;;;;10245946;28;20031;-60
2023/11/08 06:28:25;;;;;;;3.50;2.00;;;;;;;;;;10246404;28;20086;-60
2023/11/08 06:33:26;;;;;;;1.85;1.65;;;;;;;;;;10246369;28;20027;-59
2023/11/08 06:38:30;;;;;;;2.90;1.98;;;;;;;;;;10248737;28;20037;-61
2023/11/08 06:43:31;;;;;;;1.70;1.60;;;;;;;;;;10248224;28;20101;-60
2023/11/08 06:48:32;;;;;;;2.95;1.80;;;;;;;;;;10246548;28;20110;-61
2023/11/08 06:53:32;;;;;;;3.58;1.80;;;;;;;;;;10245479;28;20031;-60
2023/11/08 06:58:33;;;;;;;3.00;1.83;;;;;;;;;;10245176;28;20046;-61
2023/11/08 07:03:34;;;;;;;1.77;1.67;;;;;;;;;;10244997;28;20046;-60
2023/11/08 07:08:35;;;;;;;2.63;1.67;;;;;;;;;;10243438;28;20039;-60
2023/11/08 07:13:35;;;;;;;2.03;1.67;;;;;;;;;;10244549;28;20407;-60
2023/11/08 07:18:36;;;;;;;2.10;1.85;;;;;;;;;;10243142;28;20043;-60
2023/11/08 07:23:37;;;;;;;2.15;1.80;;;;;;;;;;10225295;28;20399;-60
2023/11/08 07:28:37;;;;;;;1.73;1.63;;;;;;;;;;10237198;28;20090;-60
2023/11/08 07:33:38;;;;;;;2.53;1.80;;;;;;;;;;10236366;28;20047;-60
2023/11/08 07:38:38;;;;;;;1.98;1.75;;;;;;;;;;10244940;28;20035;-60
2023/11/08 07:43:39;;;;;;;1.73;1.50;;;;;;;;;;10237571;28;20490;-60
2023/11/08 07:48:39;;;;;;;4.18;1.65;;;;;;;;;;10241235;28;20063;-60
2023/11/08 07:53:40;;;;;;;5.10;1.73;;;;;;;;;;10254673;28;20046;-60
2023/11/08 07:58:41;;;;;;;2.42;1.60;;;;;;;;;;10243957;28;20526;-60
2023/11/08 08:03:42;;;;;;;6.70;1.55;;;;;;;;;;10245796;28;20539;-59
2023/11/08 08:08:43;;;;;;;5.63;1.75;;;;;;;;;;10246434;28;20047;-63
2023/11/08 08:13:45;;;;;;;4.82;1.90;;;;;;;;;;10248562;28;20357;-64
2023/11/08 08:18:49;;;;;;;11.80;2.28;;;;;;;;;;10223675;28;20031;-63
2023/11/08 08:23:51;;;;;;;8.18;1.90;;;;;;;;;;10217750;28;20032;-62
2023/11/08 08:28:51;;;;;;;7.30;2.42;;;;;;;;;;10237323;28;20122;-63
2023/11/08 08:33:55;;;;;;;5.38;1.92;;;;;;;;;;10252222;28;20043;-61
2023/11/08 08:38:56;;;;;;;5.05;1.80;;;;;;;;;;10252358;28;20475;-63
2023/11/08 08:43:57;;;;;;;2.55;1.70;;;;;;;;;;10258636;28;20023;-64
2023/11/08 08:48:57;;;;;;;8.82;2.30;;;;;;;;;;10258710;28;20038;-62
2023/11/08 08:53:58;;;;;;;2.83;1.90;;;;;;;;;;10249330;28;20035;-61
2023/11/08 08:59:02;;;;;;;2.90;2.30;;;;;;;;;;10233673;28;20034;-63
2023/11/08 09:04:03;;;;;;;6.75;2.15;;;;;;;;;;10247290;28;20492;-60
2023/11/08 09:09:04;;;;;;;5.35;2.33;;;;;;;;;;10240763;28;20093;-59
2023/11/08 09:14:04;;;;;;;5.07;1.90;;;;;;;;;;10250709;28;20097;-60
2023/11/08 09:19:09;;;;;;;4.00;2.13;;;;;;;;;;10248750;28;20043;-59
2023/11/08 09:24:10;;;;;;;2.78;1.90;;;;;;;;;;10238636;28;20039;-60
2023/11/08 09:29:12;;;;;;;7.90;2.42;;;;;;;;;;10237722;28;20031;-60
2023/11/08 09:34:13;;;;;;;2.50;1.83;;;;;;;;;;10236044;28;20106;-61
2023/11/08 09:39:15;;;;;;;2.53;1.75;;;;;;;;;;10261379;28;20171;-60
2023/11/08 09:44:16;;;;;;;3.92;1.83;;;;;;;;;;10241254;28;20063;-61
2023/11/08 09:49:17;;;;;;;5.32;2.00;;;;;;;;;;10246881;28;20133;-60
2023/11/08 09:54:18;;;;;;;4.00;1.95;;;;;;;;;;10245733;28;20414;-60
2023/11/08 09:59:21;;;;;;;4.05;2.00;;;;;;;;;;10242001;28;20031;-61
2023/11/08 10:04:23;;;;;;;5.45;2.03;;;;;;;;;;10245451;28;20054;-60
2023/11/08 10:09:31;;;;;;;3.08;1.80;;;;;;;;;;10243155;28;20093;-60
2023/11/08 10:14:36;;;;;;;12.93;2.20;;;;;;;;;;10246715;28;20035;-60
2023/11/08 10:19:48;;;;;;;4.38;2.10;;;;;;;;;;10245074;28;20098;-61
2023/11/08 10:24:57;;;;;;;1.95;1.50;;;;;;;;;;10248255;28;20058;-60
2023/11/08 10:30:20;;;;;;;3.42;2.05;;;;;;;;;;10246277;28;20493;-59
2023/11/08 10:35:22;;;;;;;2.72;2.00;;;;;;;;;;10252061;28;20501;-59
2023/11/08 10:40:29;;;;;;;3.85;2.00;;;;;;;;;;10261481;28;20045;-60
2023/11/08 10:45:32;;;;;;;7.15;2.20;;;;;;;;;;10245584;28;20155;-60
2023/11/08 10:50:35;;;;;;;2.88;1.92;;;;;;;;;;10246204;28;20430;-60
2023/11/08 10:55:36;;;;;;;9.63;2.30;;;;;;;;;;10253854;28;20071;-60
2023/11/08 11:00:38;;;;;;;2.78;1.73;;;;;;;;;;10247268;28;20051;-60
2023/11/08 11:05:43;;;;;;;1.85;1.60;;;;;;;;;;10248461;28;20046;-61
2023/11/08 11:10:51;;;;;;;2.92;1.85;;;;;;;;;;10241688;28;20031;-60
2023/11/08 11:16:31;;;;;;;5.57;1.75;;;;;;;;;;10242149;28;20027;-60
2023/11/08 11:21:50;;;;;;;3.33;1.58;;;;;;;;;;10225431;28;20505;-63
2023/11/08 11:26:51;;;;;;;4.72;1.77;;;;;;;;;;10229754;28;20423;-64
2023/11/08 11:31:51;;;;;;;3.22;1.98;;;;;;;;;;10255192;28;20031;-63
2023/11/08 11:42:06;;;;;;;2.13;1.67;;;;;;;;;;10251177;28;20130;-61
2023/11/08 11:47:17;;;;;;;3.50;2.08;;;;;;;;;;10259315;28;20049;-61
2023/11/08 11:52:20;;;;;;;3.45;1.90;;;;;;;;;;10273493;23;20657;-61
2023/11/08 11:57:23;;;;;;;2.83;1.77;;;;;;;;;;10260650;28;20042;-61
2023/11/08 12:02:28;;;;;;;6.53;1.90;;;;;;;;;;10255406;28;20388;-61
2023/11/08 12:07:29;;;;;;;2.38;1.70;;;;;;;;;;10268837;28;20471;-60
2023/11/08 12:12:35;;;;;;;2.03;1.55;;;;;;;;;;10268052;28;20039;-60
2023/11/08 12:17:35;;;;;;;4.20;1.75;;;;;;;;;;10251927;28;20035;-63
2023/11/08 12:22:36;;;;;;;3.60;1.65;;;;;;;;;;10261245;28;20031;-62
2023/11/08 12:27:37;;;;;;;2.72;1.85;;;;;;;;;;10252323;28;20464;-62
2023/11/08 12:32:38;;;;;;;2.65;1.60;;;;;;;;;;10260346;28;20471;-62
2023/11/08 12:37:39;;;;;;;2.58;1.98;;;;;;;;;;10252624;28;20501;-62
2023/11/08 12:42:40;;;;;;;5.40;1.95;;;;;;;;;;10253802;28;20066;-62
2023/11/08 12:47:40;;;;;;;11.70;2.00;;;;;;;;;;10247962;28;20039;-62
2023/11/08 12:52:41;;;;;;;2.47;2.00;;;;;;;;;;10248788;28;20043;-62
2023/11/08 12:57:42;;;;;;;8.73;2.20;;;;;;;;;;10249682;28;20035;-62
2023/11/08 13:02:56;;;;;;;5.65;2.33;;;;;;;;;;10250028;28;20031;-63
2023/11/08 13:07:57;;;;;;;4.03;1.92;;;;;;;;;;10249343;28;20395;-62
2023/11/08 13:12:57;;;;;;;4.43;2.00;;;;;;;;;;10248538;28;20028;-61
2023/11/08 13:17:59;;;;;;;6.07;2.00;;;;;;;;;;10249068;28;20082;-61
2023/11/08 13:23:01;;;;;;;5.15;2.28;;;;;;;;;;10247056;28;20546;-61
2023/11/08 13:28:02;;;;;;;3.08;2.20;;;;;;;;;;10252215;28;20174;-61
2023/11/08 13:33:05;;;;;;;7.80;2.28;;;;;;;;;;10249015;28;20634;-61
2023/11/08 13:38:07;;;;;;;8.45;2.08;;;;;;;;;;10249131;28;20163;-64
2023/11/08 13:43:08;;;;;;;6.00;2.20;;;;;;;;;;10248883;28;20027;-61
2023/11/08 13:48:08;;;;;;;1.83;1.73;;;;;;;;;;10253910;28;20455;-61
2023/11/08 13:53:09;;;;;;;6.00;2.00;;;;;;;;;;10247554;28;20557;-63
2023/11/08 13:58:10;;;;;;;4.82;2.03;;;;;;;;;;10236546;28;20506;-62
2023/11/08 14:03:10;;;;;;;3.35;2.17;;;;;;;;;;10246853;28;20114;-62
2023/11/08 14:08:11;;;;;;;2.83;2.10;;;;;;;;;;10247589;28;20034;-62
2023/11/08 14:13:11;;;;;;;7.90;2.28;;;;;;;;;;10247181;28;20082;-62
2023/11/08 14:18:12;;;;;;;5.15;2.40;;;;;;;;;;10247324;28;20023;-63
2023/11/08 14:23:13;;;;;;;2.72;2.10;;;;;;;;;;10245371;28;20026;-62
2023/11/08 14:28:14;;;;;;;5.53;2.22;;;;;;;;;;10245529;28;20023;-62
2023/11/08 14:33:16;;;;;;;3.65;1.85;;;;;;;;;;10245932;28;20456;-61
2023/11/08 14:38:17;;;;;;;5.70;2.10;;;;;;;;;;10245612;28;20033;-62
2023/11/08 14:43:20;;;;;;;4.28;1.98;;;;;;;;;;10244733;28;20041;-63
2023/11/08 14:48:24;;;;;;;5.13;1.90;;;;;;;;;;10242095;28;20114;-62
2023/11/08 14:53:25;;;;;;;4.90;1.92;;;;;;;;;;10261408;28;20055;-61
2023/11/08 14:58:25;;;;;;;3.38;2.03;;;;;;;;;;10247021;28;20024;-60
2023/11/08 15:03:27;;;;;;;5.70;2.13;;;;;;;;;;10244626;28;20039;-60
2023/11/08 15:08:27;;;;;;;15.45;2.38;;;;;;;;;;10238324;28;20498;-61
2023/11/08 15:13:28;;;;;;;3.75;1.65;;;;;;;;;;10240664;28;20026;-61
2023/11/08 15:18:30;;;;;;;9.10;2.00;;;;;;;;;;10247702;28;20027;-63
2023/11/08 15:23:31;;;;;;;9.43;2.22;;;;;;;;;;10246268;28;20034;-62
2023/11/08 15:28:31;;;;;;;3.15;1.85;;;;;;;;;;10242984;28;20062;-62
2023/11/08 15:33:32;;;;;;;2.90;1.70;;;;;;;;;;10244267;28;20058;-62
2023/11/08 15:38:33;;;;;;;2.60;2.05;;;;;;;;;;10238288;28;20035;-62
2023/11/08 15:43:33;;;;;;;6.00;2.25;;;;;;;;;;10244923;28;20030;-68
2023/11/08 15:48:34;;;;;;;3.47;1.73;;;;;;;;;;10242949;28;20043;-61
2023/11/08 15:53:37;;;;;;;4.50;1.75;;;;;;;;;;10241147;28;20055;-63
2023/11/08 15:58:37;;;;;;;3.65;1.73;;;;;;;;;;10244400;28;20094;-62
2023/11/08 16:03:39;;;;;;;2.88;1.90;;;;;;;;;;10243770;28;20031;-62
2023/11/08 16:08:39;;;;;;;3.92;1.80;;;;;;;;;;10239985;28;20393;-63
2023/11/08 16:13:41;;;;;;;2.35;1.60;;;;;;;;;;10242996;28;20031;-63
2023/11/08 16:18:42;;;;;;;3.17;1.60;;;;;;;;;;10245048;28;20035;-63
2023/11/08 16:23:51;;;;;;;1.65;1.50;;;;;;;;;;10245164;28;20039;-63
2023/11/08 16:28:52;;;;;;;3.33;1.77;;;;;;;;;;10250930;28;20027;-64
2023/11/08 16:33:52;;;;;;;2.63;1.60;;;;;;;;;;10255295;28;20023;-62
2023/11/08 16:38:53;;;;;;;3.03;2.00;;;;;;;;;;10251281;28;20023;-61
2023/11/08 16:43:54;;;;;;;3.53;1.90;;;;;;;;;;10248758;28;20023;-61
2023/11/08 16:48:54;;;;;;;8.32;1.60;;;;;;;;;;10248823;28;20031;-62
2023/11/08 16:53:55;;;;;;;3.90;2.03;;;;;;;;;;10256807;28;20043;-63
2023/11/08 16:59:00;;;;;;;3.05;1.70;;;;;;;;;;10240763;28;20031;-62
2023/11/08 17:04:00;;;;;;;3.67;1.40;;;;;;;;;;10250088;28;20039;-62
2023/11/08 17:09:01;;;;;;;4.43;1.60;;;;;;;;;;10249382;28;20402;-62
2023/11/08 17:14:01;;;;;;;1.85;1.67;;;;;;;;;;10257569;28;20078;-64
2023/11/08 17:19:02;;;;;;;7.90;1.92;;;;;;;;;;10249508;28;20023;-63
2023/11/08 17:24:03;;;;;;;3.80;1.50;;;;;;;;;;10250024;28;20027;-63
2023/11/08 17:29:05;;;;;;;3.00;1.83;;;;;;;;;;10252375;28;20035;-63
2023/11/08 17:34:06;;;;;;;3.85;1.63;;;;;;;;;;10258032;28;20069;-63
2023/11/08 17:39:08;;;;;;;4.85;1.92;;;;;;;;;;10248046;28;20522;-63
2023/11/08 17:44:08;;;;;;;4.07;2.08;;;;;;;;;;10251184;28;20054;-63
2023/11/08 17:49:09;;;;;;;3.80;1.85;;;;;;;;;;10254776;28;20031;-63
2023/11/08 17:54:10;;;;;;;3.25;1.85;;;;;;;;;;10248669;28;20042;-64
2023/11/08 17:59:11;;;;;;;1.95;1.75;;;;;;;;;;10247340;28;20360;-64
2023/11/08 18:04:12;;;;;;;5.65;1.80;;;;;;;;;;10246977;28;20042;-63
2023/11/08 18:09:14;;;;;;;3.67;1.63;;;;;;;;;;10251091;28;20097;-64
2023/11/08 18:14:18;;;;;;;3.60;1.67;;;;;;;;;;10249988;28;20047;-64
2023/11/08 18:19:18;;;;;;;2.63;1.60;;;;;;;;;;10244183;28;20027;-64
2023/11/08 18:24:21;;;;;;;3.03;1.88;;;;;;;;;;10244814;28;20039;-64
2023/11/08 18:29:22;;;;;;;4.22;2.15;;;;;;;;;;10256088;28;20067;-64
2023/11/08 18:34:23;;;;;;;3.78;1.83;;;;;;;;;;10246107;28;20035;-63
2023/11/08 18:39:24;;;;;;;2.70;2.05;;;;;;;;;;10244003;28;20067;-63
2023/11/08 18:44:24;;;;;;;2.45;2.17;;;;;;;;;;10245128;28;20365;-63
2023/11/08 18:49:25;;;;;;;2.22;1.92;;;;;;;;;;10244729;28;20067;-64
2023/11/08 18:54:25;;;;;;;3.40;1.85;;;;;;;;;;10239988;28;20054;-64
2023/11/08 18:59:26;;;;;;;4.95;2.15;;;;;;;;;;10244220;28;20038;-64
2023/11/08 19:04:27;;;;;;;3.55;2.20;;;;;;;;;;10243122;28;20345;-64
2023/11/08 19:09:27;;;;;;;2.80;2.20;;;;;;;;;;10246374;28;20454;-64
2023/11/08 19:14:28;;;;;;;3.17;2.30;;;;;;;;;;10242205;28;20588;-63
2023/11/08 19:19:29;;;;;;;3.92;2.33;;;;;;;;;;10239143;28;20020;-64
2023/11/08 19:24:29;;;;;;;3.97;2.22;;;;;;;;;;10239811;28;20460;-64
2023/11/08 19:29:30;;;;;;;3.45;2.35;;;;;;;;;;10236689;28;20518;-63
2023/11/08 19:34:31;;;;;;;4.32;2.25;;;;;;;;;;10239899;28;20352;-64
2023/11/08 19:39:32;;;;;;;3.08;2.60;;;;;;;;;;10239245;28;20398;-63
2023/11/08 19:44:33;;;;;;;5.03;3.08;;;;;;;;;;10240719;28;20035;-64
2023/11/08 19:49:33;;;;;;;4.68;2.70;;;;;;;;;;10239208;28;20614;-64
2023/11/08 19:54:34;;;;;;;4.45;3.08;;;;;;;;;;10238200;28;20565;-63
2023/11/08 19:59:35;;;;;;;4.72;3.00;;;;;;;;;;10243323;28;20032;-64
2023/11/08 20:04:35;;;;;;;4.30;2.90;;;;;;;;;;10249203;28;20031;-64
2023/11/08 20:09:36;;;;;;;6.47;3.35;;;;;;;;;;10247229;28;20035;-63
2023/11/08 20:14:36;;;;;;;6.95;3.08;;;;;;;;;;10249909;28;20090;-63
2023/11/08 20:19:38;;;;;;;3.58;3.03;;;;;;;;;;10243983;28;20071;-63
2023/11/08 20:24:39;;;;;;;6.53;2.83;;;;;;;;;;10250973;28;20031;-63
2023/11/08 20:29:39;;;;;;;4.20;2.97;;;;;;;;;;10251775;28;20030;-65
2023/11/08 20:34:41;;;;;;;6.97;3.40;;;;;;;;;;10249662;28;20031;-65
2023/11/08 20:39:43;;;;;;;7.50;2.90;;;;;;;;;;10249083;28;20035;-65
2023/11/08 20:44:43;;;;;;;5.32;3.00;;;;;;;;;;10246813;28;20442;-64
2023/11/08 20:49:44;;;;;;;9.45;3.45;;;;;;;;;;10248055;28;20098;-65
2023/11/08 20:54:45;;;;;;;11.02;3.17;;;;;;;;;;10248522;28;20027;-65
2023/11/08 20:59:46;;;;;;;6.63;2.97;;;;;;;;;;10246995;28;20110;-63
2023/11/08 21:04:46;;;;;;;4.03;2.70;;;;;;;;;;10247627;28;20037;-62
2023/11/08 21:09:47;;;;;;;4.95;2.85;;;;;;;;;;10248892;28;20175;-65
2023/11/08 21:14:48;;;;;;;6.05;3.20;;;;;;;;;;10248200;28;20082;-65
2023/11/08 21:19:48;;;;;;;5.95;2.97;;;;;;;;;;10247947;28;20479;-64
2023/11/08 21:24:49;;;;;;;4.95;2.95;;;;;;;;;;10251068;28;20479;-63
2023/11/08 21:29:49;;;;;;;4.07;2.90;;;;;;;;;;10246496;28;20031;-64
2023/11/08 21:34:50;;;;;;;3.67;2.70;;;;;;;;;;10250925;28;20033;-64
2023/11/08 21:39:52;;;;;;;5.30;2.55;;;;;;;;;;10245513;28;20061;-64
2023/11/08 21:44:52;;;;;;;4.18;2.53;;;;;;;;;;10244017;28;20058;-63
2023/11/08 21:49:53;;;;;;;3.55;2.50;;;;;;;;;;10248319;28;20065;-65
2023/11/08 21:54:54;;;;;;;4.10;2.58;;;;;;;;;;10248173;28;20046;-64
2023/11/08 21:59:54;;;;;;;4.45;2.50;;;;;;;;;;10247060;28;20048;-63
2023/11/08 22:04:55;;;;;;;5.47;2.90;;;;;;;;;;10247579;28;20031;-63
2023/11/08 22:09:56;;;;;;;2.70;2.47;;;;;;;;;;10248778;28;20030;-67
2023/11/08 22:14:58;;;;;;;7.13;2.90;;;;;;;;;;10259581;28;20031;-65
2023/11/08 22:19:59;;;;;;;4.78;2.75;;;;;;;;;;10245882;28;20078;-64
2023/11/08 22:25:00;;;;;;;7.82;2.75;;;;;;;;;;10244295;28;20031;-64
2023/11/08 22:30:00;;;;;;;4.28;2.60;;;;;;;;;;10241950;28;20035;-66
2023/11/08 22:35:01;;;;;;;3.75;2.70;;;;;;;;;;10244877;28;20023;-65
2023/11/08 22:40:02;;;;;;;6.80;2.58;;;;;;;;;;10243681;28;20074;-66
2023/11/08 22:45:04;;;;;;;3.65;2.42;;;;;;;;;;10241769;28;20058;-64
2023/11/08 22:50:05;;;;;;;4.13;2.10;;;;;;;;;;10240775;28;20122;-64
2023/11/08 22:55:07;;;;;;;4.07;2.42;;;;;;;;;;10241496;28;20089;-64
2023/11/08 23:00:14;;;;;;;6.43;2.63;;;;;;;;;;10240317;28;20057;-64
2023/11/08 23:05:16;;;;;;;3.28;2.38;;;;;;;;;;10238739;28;20118;-63
2023/11/08 23:10:17;;;;;;;5.90;2.50;;;;;;;;;;10236207;28;20027;-64
2023/11/08 23:15:18;;;;;;;4.78;2.58;;;;;;;;;;10241752;28;20392;-65
2023/11/08 23:20:22;;;;;;;5.03;2.50;;;;;;;;;;10248109;28;20031;-65
2023/11/08 23:25:23;;;;;;;3.10;2.47;;;;;;;;;;10253098;28;20039;-65
2023/11/08 23:30:24;;;;;;;3.40;2.00;;;;;;;;;;10262758;28;20394;-63
2023/11/08 23:35:25;;;;;;;3.65;2.88;;;;;;;;;;10239679;28;20090;-65
2023/11/08 23:40:25;;;;;;;6.57;2.53;;;;;;;;;;10243572;28;20038;-70
2023/11/08 23:45:26;;;;;;;2.60;2.20;;;;;;;;;;10243749;28;20035;-72
2023/11/08 23:50:26;;;;;;;4.05;2.50;;;;;;;;;;10242987;28;20043;-68
2023/11/08 23:55:27;;;;;;;3.20;2.55;;;;;;;;;;10245420;28;20042;-72
